Accueil
METAR-TAF:

METAR-TAF

Aéroports :

Aéroport Al Hoceima - Cherif-Al-Idrissi

Al Hoceima, Maroc

latitude: 35-11N, longitude: 003-51W, altitude: 27 m

Observation

Le bulletin a été fait il y a 45 minutes, à 17:00 UTC
Vent 11 kt de nord/nord-ouest, variant entre ouest/nord-ouest et nord
Température 26°C
Humidité 51%
Pression 1014 hPa
Visibilité 10 km ou plus
pas de nuages en-dessous de 1500 mètres et pas de cumulonimbus.

METAR: GMTA 221700Z 33011KT 300V360 CAVOK 26/15 Q1014 NOSIG

Heure: 18:45 (17:45 UTC)

Prévision

Le bulletin a été fait il y a 45 minutes, à 17:00 UTC
Prévision valable du 22 à 18 UTC au 23 à 24 UTC
Vent 10 kt de nord/nord-ouest
Visibilité 10 km ou plus
pas de nuages en-dessous de 1500 mètres et pas de cumulonimbus.

TAF: GMTA 221700Z 2218/2324 33010KT CAVOK

Observations et prévisions météorologiques de plus de 4000 aéroports (messages METAR et TAF).

Les stations disponibles sont représentées par des disques jaunes et rouges sur la carte.

Passer la souris dessus pour voir le nom de la station.

Cliquer dessus pour voir les observations et prévisions météorologiques.

Pour changer de carte: cliquez sur les boutons verts avec une croix noire pour zoomer, sur le bouton vert avec un tiret pour effectuer un zoom arrière, ou sur les flèches vertes pour les cartes adjacentes.


METAR-TAF: